Terminal Aerodrome Forecast
Issued by NWS Topeka, KS

Home | Current Version | Previous Version | Text Only | Print | Product List | Glossary Off
Versions: 1 2 3 4 5 6 7 8 9 10 11 12 13 14 15 16 17 18 19 20 21 22 23 24 25 26 27 28

000
FTUS43 KTOP 270746 AAB
TAFTOP
TAF AMD
KTOP 270746Z 2708/2806 09010KT P6SM SCT010 BKN090
     FM271100 16010KT P6SM BKN040
     FM271400 24011KT P6SM SCT040
     FM271900 25010KT P6SM VCSH BKN035
     FM280100 26008KT P6SM SCT200=

USA.gov is the U.S. government's official web portal to all federal, state and local government web resources and services.